sensor_id;sensor_type;location;lat;lon;timestamp;pressure;altitude;pressure_sealevel;temperature;humidity
79780;BME280;69258;52.050;10.334;2023-08-12T00:11:58;99912.25;;;23.52;55.90
79780;BME280;69258;52.050;10.334;2023-08-12T00:27:01;99905.00;;;23.52;56.19
79780;BME280;69258;52.050;10.334;2023-08-12T00:42:03;99900.06;;;23.49;56.27
79780;BME280;69258;52.050;10.334;2023-08-12T00:57:06;99892.78;;;23.49;56.07
79780;BME280;69258;52.050;10.334;2023-08-12T01:12:16;99872.34;;;23.48;55.86
79780;BME280;69258;52.050;10.334;2023-08-12T01:27:20;99845.44;;;23.48;56.07
79780;BME280;69258;52.050;10.334;2023-08-12T01:42:23;99840.47;;;23.45;56.29
79780;BME280;69258;52.050;10.334;2023-08-12T01:57:26;99823.28;;;23.46;56.63
79780;BME280;69258;52.050;10.334;2023-08-12T02:12:29;99817.31;;;23.44;56.66
79780;BME280;69258;52.050;10.334;2023-08-12T02:27:31;99806.56;;;23.44;56.83
79780;BME280;69258;52.050;10.334;2023-08-12T02:42:33;99787.94;;;23.43;56.04
79780;BME280;69258;52.050;10.334;2023-08-12T02:57:35;99769.34;;;23.41;56.75
79780;BME280;69258;52.050;10.334;2023-08-12T03:12:38;99771.81;;;23.43;56.70
79780;BME280;69258;52.050;10.334;2023-08-12T03:27:41;99762.91;;;23.42;56.67
79780;BME280;69258;52.050;10.334;2023-08-12T03:42:44;99762.09;;;23.42;56.37
79780;BME280;69258;52.050;10.334;2023-08-12T03:57:46;99770.38;;;23.40;56.75
79780;BME280;69258;52.050;10.334;2023-08-12T04:12:49;99794.56;;;23.40;56.57
79780;BME280;69258;52.050;10.334;2023-08-12T04:27:50;99797.47;;;23.39;56.90
79780;BME280;69258;52.050;10.334;2023-08-12T04:42:52;99809.06;;;23.39;56.96
79780;BME280;69258;52.050;10.334;2023-08-12T04:57:55;99822.72;;;23.38;56.16
79780;BME280;69258;52.050;10.334;2023-08-12T05:12:58;99815.09;;;23.35;57.09
79780;BME280;69258;52.050;10.334;2023-08-12T05:27:59;99823.38;;;23.33;59.27
79780;BME280;69258;52.050;10.334;2023-08-12T05:43:01;99801.88;;;23.33;59.30
79780;BME280;69258;52.050;10.334;2023-08-12T05:58:04;99770.03;;;23.30;59.63
79780;BME280;69258;52.050;10.334;2023-08-12T06:13:07;99775.47;;;23.24;61.31
79780;BME280;69258;52.050;10.334;2023-08-12T06:28:09;99777.44;;;23.35;61.42
79780;BME280;69258;52.050;10.334;2023-08-12T06:43:12;99781.41;;;23.32;62.63
79780;BME280;69258;52.050;10.334;2023-08-12T06:58:14;99772.03;;;23.41;63.05
79780;BME280;69258;52.050;10.334;2023-08-12T07:13:17;99774.97;;;23.33;63.30
79780;BME280;69258;52.050;10.334;2023-08-12T07:28:19;99764.22;;;23.33;63.73
79780;BME280;69258;52.050;10.334;2023-08-12T07:43:21;99766.53;;;23.30;63.44
79780;BME280;69258;52.050;10.334;2023-08-12T07:58:23;99769.63;;;23.27;62.94
79780;BME280;69258;52.050;10.334;2023-08-12T08:13:26;99755.81;;;23.23;63.11
79780;BME280;69258;52.050;10.334;2023-08-12T08:28:28;99764.25;;;23.27;62.89
79780;BME280;69258;52.050;10.334;2023-08-12T08:43:30;99752.03;;;23.31;62.04
79780;BME280;69258;52.050;10.334;2023-08-12T08:58:34;99735.31;;;23.29;62.41
79780;BME280;69258;52.050;10.334;2023-08-12T09:13:36;99723.28;;;23.31;62.82
79780;BME280;69258;52.050;10.334;2023-08-12T09:28:39;99721.34;;;23.38;62.76
79780;BME280;69258;52.050;10.334;2023-08-12T09:43:42;99707.81;;;23.52;61.50
79780;BME280;69258;52.050;10.334;2023-08-12T09:58:47;99662.25;;;23.57;62.44
79780;BME280;69258;52.050;10.334;2023-08-12T10:13:50;99642.63;;;23.49;63.14
79780;BME280;69258;52.050;10.334;2023-08-12T10:28:54;99669.13;;;23.71;60.96
79780;BME280;69258;52.050;10.334;2023-08-12T10:44:01;99688.06;;;23.76;61.69
79780;BME280;69258;52.050;10.334;2023-08-12T10:59:04;99679.94;;;23.82;61.32
79780;BME280;69258;52.050;10.334;2023-08-12T11:14:14;99665.00;;;23.86;61.42
79780;BME280;69258;52.050;10.334;2023-08-12T11:29:15;99630.38;;;23.90;62.68
79780;BME280;69258;52.050;10.334;2023-08-12T11:44:22;99619.97;;;23.93;61.49
79780;BME280;69258;52.050;10.334;2023-08-12T11:59:24;99580.31;;;24.01;61.24
79780;BME280;69258;52.050;10.334;2023-08-12T12:14:28;99578.56;;;24.06;61.59
79780;BME280;69258;52.050;10.334;2023-08-12T12:29:31;99582.00;;;24.13;61.53
79780;BME280;69258;52.050;10.334;2023-08-12T12:44:33;99562.84;;;24.21;62.10
79780;BME280;69258;52.050;10.334;2023-08-12T12:59:34;99553.03;;;24.27;62.22
79780;BME280;69258;52.050;10.334;2023-08-12T13:14:37;99544.84;;;24.33;62.44
79780;BME280;69258;52.050;10.334;2023-08-12T13:29:40;99544.97;;;24.38;61.94
79780;BME280;69258;52.050;10.334;2023-08-12T13:44:41;99542.38;;;24.43;62.20
79780;BME280;69258;52.050;10.334;2023-08-12T13:59:43;99547.75;;;24.43;62.05
79780;BME280;69258;52.050;10.334;2023-08-12T14:14:46;99539.25;;;24.47;62.34
79780;BME280;69258;52.050;10.334;2023-08-12T14:29:47;99526.59;;;24.47;61.50
79780;BME280;69258;52.050;10.334;2023-08-12T14:44:49;99514.53;;;24.50;61.89
79780;BME280;69258;52.050;10.334;2023-08-12T14:59:52;99494.97;;;24.54;61.54
79780;BME280;69258;52.050;10.334;2023-08-12T15:14:54;99509.97;;;24.50;61.00
79780;BME280;69258;52.050;10.334;2023-08-12T15:29:57;99501.53;;;24.47;60.95
79780;BME280;69258;52.050;10.334;2023-08-12T15:44:59;99543.19;;;24.44;61.11
79780;BME280;69258;52.050;10.334;2023-08-12T16:00:00;99550.47;;;24.43;61.70
79780;BME280;69258;52.050;10.334;2023-08-12T16:15:03;99550.38;;;24.50;61.45
79780;BME280;69258;52.050;10.334;2023-08-12T16:30:06;99550.59;;;24.49;61.30
79780;BME280;69258;52.050;10.334;2023-08-12T16:45:08;99557.84;;;24.48;60.97
79780;BME280;69258;52.050;10.334;2023-08-12T17:00:11;99582.22;;;24.53;60.96
79780;BME280;69258;52.050;10.334;2023-08-12T17:15:14;99546.84;;;24.50;60.79
79780;BME280;69258;52.050;10.334;2023-08-12T17:30:17;99603.19;;;24.51;60.83
79780;BME280;69258;52.050;10.334;2023-08-12T17:45:20;99626.84;;;24.49;61.17
79780;BME280;69258;52.050;10.334;2023-08-12T18:00:22;99644.88;;;24.49;61.45
79780;BME280;69258;52.050;10.334;2023-08-12T18:15:28;99662.91;;;24.48;60.53
79780;BME280;69258;52.050;10.334;2023-08-12T18:30:31;99697.94;;;24.48;61.11
79780;BME280;69258;52.050;10.334;2023-08-12T18:45:33;99711.66;;;24.47;60.86
79780;BME280;69258;52.050;10.334;2023-08-12T19:00:35;99719.94;;;24.45;61.08
79780;BME280;69258;52.050;10.334;2023-08-12T19:15:38;99744.41;;;24.43;61.43
79780;BME280;69258;52.050;10.334;2023-08-12T19:30:41;99760.81;;;24.42;61.06
79780;BME280;69258;52.050;10.334;2023-08-12T19:45:43;99767.25;;;24.41;61.21
79780;BME280;69258;52.050;10.334;2023-08-12T20:00:46;99784.22;;;24.41;60.89
79780;BME280;69258;52.050;10.334;2023-08-12T20:15:49;99768.53;;;24.38;61.29
79780;BME280;69258;52.050;10.334;2023-08-12T20:30:51;99783.88;;;24.38;61.11
79780;BME280;69258;52.050;10.334;2023-08-12T20:45:54;99777.06;;;24.35;61.56
79780;BME280;69258;52.050;10.334;2023-08-12T21:00:56;99788.06;;;24.34;61.21
79780;BME280;69258;52.050;10.334;2023-08-12T21:15:59;99803.28;;;24.28;61.13
79780;BME280;69258;52.050;10.334;2023-08-12T21:31:01;99813.22;;;24.28;61.53
79780;BME280;69258;52.050;10.334;2023-08-12T21:46:04;99821.97;;;24.23;61.92
79780;BME280;69258;52.050;10.334;2023-08-12T22:01:07;99830.50;;;24.20;61.81
79780;BME280;69258;52.050;10.334;2023-08-12T22:16:09;99836.09;;;24.19;62.16
79780;BME280;69258;52.050;10.334;2023-08-12T22:31:11;99827.19;;;24.18;61.48
79780;BME280;69258;52.050;10.334;2023-08-12T22:46:14;99840.28;;;24.15;61.75
79780;BME280;69258;52.050;10.334;2023-08-12T23:01:17;99844.22;;;24.12;62.02
79780;BME280;69258;52.050;10.334;2023-08-12T23:16:20;99853.34;;;24.11;61.95
79780;BME280;69258;52.050;10.334;2023-08-12T23:31:22;99852.97;;;24.08;61.92
79780;BME280;69258;52.050;10.334;2023-08-12T23:46:25;99842.41;;;24.06;62.22
